sensor_id;sensor_type;location;lat;lon;timestamp;P1;durP1;ratioP1;P2;durP2;ratioP2
69744;SDS011;57015;50.120;-5.168;2023-04-24T00:01:21;2.17;;;0.77;;
69744;SDS011;57015;50.120;-5.168;2023-04-24T00:03:46;2.23;;;0.83;;
69744;SDS011;57015;50.120;-5.168;2023-04-24T00:06:11;2.53;;;0.65;;
69744;SDS011;57015;50.120;-5.168;2023-04-24T00:08:37;2.47;;;0.50;;
69744;SDS011;57015;50.120;-5.168;2023-04-24T00:11:03;2.57;;;0.80;;
69744;SDS011;57015;50.120;-5.168;2023-04-24T00:13:28;2.60;;;0.70;;
69744;SDS011;57015;50.120;-5.168;2023-04-24T00:15:54;3.67;;;0.70;;
69744;SDS011;57015;50.120;-5.168;2023-04-24T00:18:20;1.73;;;0.50;;
69744;SDS011;57015;50.120;-5.168;2023-04-24T00:20:46;2.67;;;0.70;;
69744;SDS011;57015;50.120;-5.168;2023-04-24T00:23:12;3.15;;;1.30;;
69744;SDS011;57015;50.120;-5.168;2023-04-24T00:25:38;2.00;;;0.70;;
69744;SDS011;57015;50.120;-5.168;2023-04-24T00:28:03;2.07;;;0.70;;
69744;SDS011;57015;50.120;-5.168;2023-04-24T00:30:29;2.75;;;0.68;;
69744;SDS011;57015;50.120;-5.168;2023-04-24T00:32:54;1.67;;;0.67;;
69744;SDS011;57015;50.120;-5.168;2023-04-24T00:35:20;1.60;;;0.40;;
69744;SDS011;57015;50.120;-5.168;2023-04-24T00:37:45;2.47;;;0.80;;
69744;SDS011;57015;50.120;-5.168;2023-04-24T00:40:11;1.85;;;0.70;;
69744;SDS011;57015;50.120;-5.168;2023-04-24T00:42:36;5.10;;;1.13;;
69744;SDS011;57015;50.120;-5.168;2023-04-24T00:45:02;2.10;;;0.70;;
69744;SDS011;57015;50.120;-5.168;2023-04-24T00:47:28;3.38;;;1.23;;
69744;SDS011;57015;50.120;-5.168;2023-04-24T00:49:54;3.50;;;0.80;;
69744;SDS011;57015;50.120;-5.168;2023-04-24T00:52:19;3.60;;;1.08;;
69744;SDS011;57015;50.120;-5.168;2023-04-24T00:54:45;2.60;;;0.97;;
69744;SDS011;57015;50.120;-5.168;2023-04-24T00:57:11;3.55;;;0.90;;
69744;SDS011;57015;50.120;-5.168;2023-04-24T00:59:36;3.90;;;0.97;;
69744;SDS011;57015;50.120;-5.168;2023-04-24T01:02:02;4.20;;;1.30;;
69744;SDS011;57015;50.120;-5.168;2023-04-24T01:04:27;5.88;;;1.60;;
69744;SDS011;57015;50.120;-5.168;2023-04-24T01:06:53;2.42;;;0.95;;
69744;SDS011;57015;50.120;-5.168;2023-04-24T01:09:20;4.53;;;1.10;;
69744;SDS011;57015;50.120;-5.168;2023-04-24T01:11:47;2.72;;;1.00;;
69744;SDS011;57015;50.120;-5.168;2023-04-24T01:14:12;3.87;;;1.43;;
69744;SDS011;57015;50.120;-5.168;2023-04-24T01:16:37;4.43;;;1.43;;
69744;SDS011;57015;50.120;-5.168;2023-04-24T01:19:03;3.07;;;1.00;;
69744;SDS011;57015;50.120;-5.168;2023-04-24T01:21:29;3.75;;;1.50;;
69744;SDS011;57015;50.120;-5.168;2023-04-24T01:23:55;3.47;;;1.33;;
69744;SDS011;57015;50.120;-5.168;2023-04-24T01:26:22;3.35;;;1.23;;
69744;SDS011;57015;50.120;-5.168;2023-04-24T01:28:48;4.03;;;1.55;;
69744;SDS011;57015;50.120;-5.168;2023-04-24T01:31:14;4.87;;;1.60;;
69744;SDS011;57015;50.120;-5.168;2023-04-24T01:33:41;4.00;;;1.67;;
69744;SDS011;57015;50.120;-5.168;2023-04-24T01:36:07;4.82;;;2.05;;
69744;SDS011;57015;50.120;-5.168;2023-04-24T01:38:34;3.90;;;1.80;;
69744;SDS011;57015;50.120;-5.168;2023-04-24T01:41:00;3.80;;;1.40;;
69744;SDS011;57015;50.120;-5.168;2023-04-24T01:43:25;3.40;;;1.60;;
69744;SDS011;57015;50.120;-5.168;2023-04-24T01:45:51;4.27;;;1.90;;
69744;SDS011;57015;50.120;-5.168;2023-04-24T01:48:16;5.10;;;2.40;;
69744;SDS011;57015;50.120;-5.168;2023-04-24T01:50:41;6.47;;;2.00;;
69744;SDS011;57015;50.120;-5.168;2023-04-24T01:53:07;4.47;;;1.67;;
69744;SDS011;57015;50.120;-5.168;2023-04-24T01:55:32;4.00;;;1.47;;
69744;SDS011;57015;50.120;-5.168;2023-04-24T01:57:58;5.80;;;2.33;;
69744;SDS011;57015;50.120;-5.168;2023-04-24T02:00:24;5.55;;;2.45;;
69744;SDS011;57015;50.120;-5.168;2023-04-24T02:02:50;6.77;;;2.27;;
69744;SDS011;57015;50.120;-5.168;2023-04-24T02:05:15;4.65;;;1.80;;
69744;SDS011;57015;50.120;-5.168;2023-04-24T02:07:41;7.80;;;1.85;;
69744;SDS011;57015;50.120;-5.168;2023-04-24T02:10:06;3.70;;;1.67;;
69744;SDS011;57015;50.120;-5.168;2023-04-24T02:12:32;3.97;;;1.67;;
69744;SDS011;57015;50.120;-5.168;2023-04-24T02:14:58;4.15;;;1.83;;
69744;SDS011;57015;50.120;-5.168;2023-04-24T02:17:23;3.83;;;1.73;;
69744;SDS011;57015;50.120;-5.168;2023-04-24T02:19:48;4.27;;;1.67;;
69744;SDS011;57015;50.120;-5.168;2023-04-24T02:22:14;5.73;;;1.77;;
69744;SDS011;57015;50.120;-5.168;2023-04-24T02:24:39;4.78;;;2.15;;
69744;SDS011;57015;50.120;-5.168;2023-04-24T02:27:05;3.93;;;1.70;;
69744;SDS011;57015;50.120;-5.168;2023-04-24T02:29:31;5.10;;;1.87;;
69744;SDS011;57015;50.120;-5.168;2023-04-24T02:31:56;5.32;;;2.28;;
69744;SDS011;57015;50.120;-5.168;2023-04-24T02:34:21;5.85;;;1.98;;
69744;SDS011;57015;50.120;-5.168;2023-04-24T02:36:48;4.93;;;2.00;;
69744;SDS011;57015;50.120;-5.168;2023-04-24T02:39:13;5.43;;;2.40;;
69744;SDS011;57015;50.120;-5.168;2023-04-24T02:41:41;4.93;;;2.00;;
69744;SDS011;57015;50.120;-5.168;2023-04-24T02:44:07;6.38;;;1.98;;
69744;SDS011;57015;50.120;-5.168;2023-04-24T02:46:32;5.07;;;2.10;;
69744;SDS011;57015;50.120;-5.168;2023-04-24T02:48:58;5.13;;;1.57;;
69744;SDS011;57015;50.120;-5.168;2023-04-24T02:51:23;5.00;;;1.73;;
69744;SDS011;57015;50.120;-5.168;2023-04-24T02:53:48;4.83;;;1.43;;
69744;SDS011;57015;50.120;-5.168;2023-04-24T02:56:14;7.60;;;2.13;;
69744;SDS011;57015;50.120;-5.168;2023-04-24T02:58:39;4.90;;;2.17;;
69744;SDS011;57015;50.120;-5.168;2023-04-24T03:01:05;7.95;;;2.50;;
69744;SDS011;57015;50.120;-5.168;2023-04-24T03:03:30;4.47;;;1.83;;
69744;SDS011;57015;50.120;-5.168;2023-04-24T03:05:56;6.07;;;1.77;;
69744;SDS011;57015;50.120;-5.168;2023-04-24T03:08:22;5.00;;;2.30;;
69744;SDS011;57015;50.120;-5.168;2023-04-24T03:10:48;6.00;;;1.98;;
69744;SDS011;57015;50.120;-5.168;2023-04-24T03:13:13;4.37;;;1.80;;
69744;SDS011;57015;50.120;-5.168;2023-04-24T03:15:38;5.27;;;2.27;;
69744;SDS011;57015;50.120;-5.168;2023-04-24T03:18:04;5.17;;;2.10;;
69744;SDS011;57015;50.120;-5.168;2023-04-24T03:20:29;6.03;;;2.20;;
69744;SDS011;57015;50.120;-5.168;2023-04-24T03:22:55;4.07;;;1.92;;
69744;SDS011;57015;50.120;-5.168;2023-04-24T03:25:22;3.57;;;2.00;;
69744;SDS011;57015;50.120;-5.168;2023-04-24T03:27:47;3.92;;;1.95;;
69744;SDS011;57015;50.120;-5.168;2023-04-24T03:30:12;5.37;;;2.37;;
69744;SDS011;57015;50.120;-5.168;2023-04-24T03:32:38;5.57;;;1.60;;
69744;SDS011;57015;50.120;-5.168;2023-04-24T03:35:04;6.50;;;1.90;;
69744;SDS011;57015;50.120;-5.168;2023-04-24T03:37:33;7.70;;;1.67;;
69744;SDS011;57015;50.120;-5.168;2023-04-24T03:39:59;4.37;;;1.60;;
69744;SDS011;57015;50.120;-5.168;2023-04-24T03:42:24;3.63;;;1.60;;
69744;SDS011;57015;50.120;-5.168;2023-04-24T03:44:49;4.80;;;1.70;;
69744;SDS011;57015;50.120;-5.168;2023-04-24T03:47:15;4.28;;;1.65;;
69744;SDS011;57015;50.120;-5.168;2023-04-24T03:49:40;4.32;;;1.90;;
69744;SDS011;57015;50.120;-5.168;2023-04-24T03:52:06;4.77;;;1.90;;
69744;SDS011;57015;50.120;-5.168;2023-04-24T03:54:31;6.10;;;2.03;;
69744;SDS011;57015;50.120;-5.168;2023-04-24T03:56:56;3.50;;;1.33;;
69744;SDS011;57015;50.120;-5.168;2023-04-24T03:59:22;5.97;;;1.87;;
69744;SDS011;57015;50.120;-5.168;2023-04-24T04:01:47;5.07;;;1.50;;
69744;SDS011;57015;50.120;-5.168;2023-04-24T04:04:13;5.70;;;1.97;;
69744;SDS011;57015;50.120;-5.168;2023-04-24T04:06:38;6.45;;;2.25;;
69744;SDS011;57015;50.120;-5.168;2023-04-24T04:09:03;7.13;;;1.73;;
69744;SDS011;57015;50.120;-5.168;2023-04-24T04:11:29;9.00;;;1.80;;
69744;SDS011;57015;50.120;-5.168;2023-04-24T04:13:55;3.95;;;1.45;;
69744;SDS011;57015;50.120;-5.168;2023-04-24T04:16:21;4.23;;;1.97;;
69744;SDS011;57015;50.120;-5.168;2023-04-24T04:18:47;4.35;;;1.70;;
69744;SDS011;57015;50.120;-5.168;2023-04-24T04:21:12;5.57;;;1.93;;
69744;SDS011;57015;50.120;-5.168;2023-04-24T04:23:38;5.77;;;1.60;;
69744;SDS011;57015;50.120;-5.168;2023-04-24T04:26:04;4.22;;;1.30;;
69744;SDS011;57015;50.120;-5.168;2023-04-24T04:28:30;4.32;;;1.40;;
69744;SDS011;57015;50.120;-5.168;2023-04-24T04:30:56;4.50;;;1.48;;
69744;SDS011;57015;50.120;-5.168;2023-04-24T04:33:22;4.05;;;1.38;;
69744;SDS011;57015;50.120;-5.168;2023-04-24T04:35:48;3.60;;;1.60;;
69744;SDS011;57015;50.120;-5.168;2023-04-24T04:38:15;4.18;;;1.75;;
69744;SDS011;57015;50.120;-5.168;2023-04-24T04:40:41;5.57;;;2.00;;
69744;SDS011;57015;50.120;-5.168;2023-04-24T04:43:07;4.15;;;1.77;;
69744;SDS011;57015;50.120;-5.168;2023-04-24T04:45:33;6.50;;;1.53;;
69744;SDS011;57015;50.120;-5.168;2023-04-24T04:47:59;3.55;;;1.42;;
69744;SDS011;57015;50.120;-5.168;2023-04-24T04:50:26;4.65;;;1.50;;
69744;SDS011;57015;50.120;-5.168;2023-04-24T04:52:52;3.60;;;1.20;;
69744;SDS011;57015;50.120;-5.168;2023-04-24T04:55:17;6.43;;;1.87;;
69744;SDS011;57015;50.120;-5.168;2023-04-24T04:57:45;4.72;;;1.40;;
69744;SDS011;57015;50.120;-5.168;2023-04-24T05:00:10;4.38;;;1.23;;
69744;SDS011;57015;50.120;-5.168;2023-04-24T05:02:36;5.28;;;1.42;;
69744;SDS011;57015;50.120;-5.168;2023-04-24T05:05:02;4.47;;;1.30;;
69744;SDS011;57015;50.120;-5.168;2023-04-24T05:07:27;4.90;;;1.30;;
69744;SDS011;57015;50.120;-5.168;2023-04-24T05:09:53;2.90;;;1.27;;
69744;SDS011;57015;50.120;-5.168;2023-04-24T05:12:18;4.93;;;1.37;;
69744;SDS011;57015;50.120;-5.168;2023-04-24T05:14:43;6.72;;;1.42;;
69744;SDS011;57015;50.120;-5.168;2023-04-24T05:17:09;4.72;;;1.35;;
69744;SDS011;57015;50.120;-5.168;2023-04-24T05:19:34;5.63;;;1.50;;
69744;SDS011;57015;50.120;-5.168;2023-04-24T05:22:02;5.68;;;1.40;;
69744;SDS011;57015;50.120;-5.168;2023-04-24T05:24:29;4.63;;;1.38;;
69744;SDS011;57015;50.120;-5.168;2023-04-24T05:26:54;6.87;;;1.83;;
69744;SDS011;57015;50.120;-5.168;2023-04-24T05:29:20;7.53;;;2.05;;
69744;SDS011;57015;50.120;-5.168;2023-04-24T05:31:46;3.83;;;1.23;;
69744;SDS011;57015;50.120;-5.168;2023-04-24T05:34:11;6.07;;;1.60;;
69744;SDS011;57015;50.120;-5.168;2023-04-24T05:36:37;7.18;;;1.48;;
69744;SDS011;57015;50.120;-5.168;2023-04-24T05:39:02;3.57;;;1.00;;
69744;SDS011;57015;50.120;-5.168;2023-04-24T05:41:30;6.23;;;1.10;;
69744;SDS011;57015;50.120;-5.168;2023-04-24T05:43:55;3.92;;;1.30;;
69744;SDS011;57015;50.120;-5.168;2023-04-24T05:46:20;4.43;;;1.13;;
69744;SDS011;57015;50.120;-5.168;2023-04-24T05:48:46;2.70;;;1.00;;
69744;SDS011;57015;50.120;-5.168;2023-04-24T05:51:12;4.27;;;0.90;;
69744;SDS011;57015;50.120;-5.168;2023-04-24T05:53:37;3.55;;;1.27;;
69744;SDS011;57015;50.120;-5.168;2023-04-24T05:56:02;2.63;;;0.80;;
69744;SDS011;57015;50.120;-5.168;2023-04-24T05:58:28;2.93;;;0.93;;
69744;SDS011;57015;50.120;-5.168;2023-04-24T06:00:53;4.07;;;0.97;;
69744;SDS011;57015;50.120;-5.168;2023-04-24T06:03:20;3.13;;;1.00;;
69744;SDS011;57015;50.120;-5.168;2023-04-24T06:05:45;5.77;;;1.27;;
69744;SDS011;57015;50.120;-5.168;2023-04-24T06:08:11;6.57;;;1.70;;
69744;SDS011;57015;50.120;-5.168;2023-04-24T06:10:36;5.20;;;1.02;;
69744;SDS011;57015;50.120;-5.168;2023-04-24T06:13:02;4.23;;;1.30;;
69744;SDS011;57015;50.120;-5.168;2023-04-24T06:15:28;4.93;;;1.57;;
69744;SDS011;57015;50.120;-5.168;2023-04-24T06:17:55;4.60;;;1.13;;
69744;SDS011;57015;50.120;-5.168;2023-04-24T06:20:21;4.38;;;1.23;;
69744;SDS011;57015;50.120;-5.168;2023-04-24T06:22:46;5.13;;;1.40;;
69744;SDS011;57015;50.120;-5.168;2023-04-24T06:25:12;3.90;;;1.37;;
69744;SDS011;57015;50.120;-5.168;2023-04-24T06:27:37;3.37;;;1.17;;
69744;SDS011;57015;50.120;-5.168;2023-04-24T06:30:02;3.47;;;1.40;;
69744;SDS011;57015;50.120;-5.168;2023-04-24T06:32:28;5.18;;;1.40;;
69744;SDS011;57015;50.120;-5.168;2023-04-24T06:34:55;3.92;;;1.40;;
69744;SDS011;57015;50.120;-5.168;2023-04-24T06:37:21;3.43;;;1.33;;
69744;SDS011;57015;50.120;-5.168;2023-04-24T06:39:46;6.43;;;1.80;;
69744;SDS011;57015;50.120;-5.168;2023-04-24T06:42:12;5.20;;;1.50;;
69744;SDS011;57015;50.120;-5.168;2023-04-24T06:44:37;3.95;;;1.67;;
69744;SDS011;57015;50.120;-5.168;2023-04-24T06:47:11;4.07;;;1.30;;
69744;SDS011;57015;50.120;-5.168;2023-04-24T06:49:38;5.47;;;1.60;;
69744;SDS011;57015;50.120;-5.168;2023-04-24T06:52:05;4.22;;;1.48;;
69744;SDS011;57015;50.120;-5.168;2023-04-24T06:54:30;8.18;;;1.48;;
69744;SDS011;57015;50.120;-5.168;2023-04-24T06:56:56;6.33;;;1.63;;
69744;SDS011;57015;50.120;-5.168;2023-04-24T06:59:22;5.93;;;1.95;;
69744;SDS011;57015;50.120;-5.168;2023-04-24T07:01:48;6.10;;;2.03;;
69744;SDS011;57015;50.120;-5.168;2023-04-24T07:04:14;7.53;;;2.10;;
69744;SDS011;57015;50.120;-5.168;2023-04-24T07:06:39;6.37;;;2.20;;
69744;SDS011;57015;50.120;-5.168;2023-04-24T07:09:05;10.20;;;2.60;;
69744;SDS011;57015;50.120;-5.168;2023-04-24T07:11:30;13.80;;;2.70;;
69744;SDS011;57015;50.120;-5.168;2023-04-24T07:13:56;15.88;;;3.08;;
69744;SDS011;57015;50.120;-5.168;2023-04-24T07:16:22;8.93;;;3.73;;
69744;SDS011;57015;50.120;-5.168;2023-04-24T07:18:47;12.55;;;3.13;;
69744;SDS011;57015;50.120;-5.168;2023-04-24T07:21:12;14.30;;;3.75;;
69744;SDS011;57015;50.120;-5.168;2023-04-24T07:23:38;13.20;;;4.20;;
69744;SDS011;57015;50.120;-5.168;2023-04-24T07:26:03;18.97;;;4.57;;
69744;SDS011;57015;50.120;-5.168;2023-04-24T07:28:29;14.93;;;3.87;;
69744;SDS011;57015;50.120;-5.168;2023-04-24T07:30:57;14.55;;;3.58;;
69744;SDS011;57015;50.120;-5.168;2023-04-24T07:33:23;20.05;;;4.30;;
69744;SDS011;57015;50.120;-5.168;2023-04-24T07:35:49;12.13;;;3.77;;
69744;SDS011;57015;50.120;-5.168;2023-04-24T07:38:14;13.13;;;3.53;;
69744;SDS011;57015;50.120;-5.168;2023-04-24T07:40:40;10.15;;;3.38;;
69744;SDS011;57015;50.120;-5.168;2023-04-24T07:43:05;14.30;;;2.63;;
69744;SDS011;57015;50.120;-5.168;2023-04-24T07:45:30;11.70;;;2.93;;
69744;SDS011;57015;50.120;-5.168;2023-04-24T07:47:58;12.68;;;2.78;;
69744;SDS011;57015;50.120;-5.168;2023-04-24T07:50:23;10.47;;;3.27;;
69744;SDS011;57015;50.120;-5.168;2023-04-24T07:52:49;10.63;;;2.80;;
69744;SDS011;57015;50.120;-5.168;2023-04-24T07:55:15;10.10;;;3.38;;
69744;SDS011;57015;50.120;-5.168;2023-04-24T07:57:40;13.07;;;3.10;;
69744;SDS011;57015;50.120;-5.168;2023-04-24T08:00:06;18.73;;;3.00;;
69744;SDS011;57015;50.120;-5.168;2023-04-24T08:02:32;10.93;;;2.80;;
69744;SDS011;57015;50.120;-5.168;2023-04-24T08:04:57;10.27;;;2.87;;
69744;SDS011;57015;50.120;-5.168;2023-04-24T08:07:23;12.47;;;3.00;;
69744;SDS011;57015;50.120;-5.168;2023-04-24T08:09:48;12.88;;;2.72;;
69744;SDS011;57015;50.120;-5.168;2023-04-24T08:12:14;8.68;;;2.40;;
69744;SDS011;57015;50.120;-5.168;2023-04-24T08:14:39;14.40;;;2.60;;
69744;SDS011;57015;50.120;-5.168;2023-04-24T08:17:05;12.07;;;2.43;;
69744;SDS011;57015;50.120;-5.168;2023-04-24T08:19:30;11.35;;;2.67;;
69744;SDS011;57015;50.120;-5.168;2023-04-24T08:21:56;11.93;;;2.73;;
69744;SDS011;57015;50.120;-5.168;2023-04-24T08:24:21;8.87;;;2.67;;
69744;SDS011;57015;50.120;-5.168;2023-04-24T08:26:47;14.75;;;2.90;;
69744;SDS011;57015;50.120;-5.168;2023-04-24T08:29:15;18.75;;;2.78;;
69744;SDS011;57015;50.120;-5.168;2023-04-24T08:31:41;13.43;;;2.30;;
69744;SDS011;57015;50.120;-5.168;2023-04-24T08:34:06;17.43;;;2.53;;
69744;SDS011;57015;50.120;-5.168;2023-04-24T08:36:31;10.87;;;2.73;;
69744;SDS011;57015;50.120;-5.168;2023-04-24T08:38:57;13.02;;;3.83;;
69744;SDS011;57015;50.120;-5.168;2023-04-24T08:41:22;11.90;;;3.93;;
69744;SDS011;57015;50.120;-5.168;2023-04-24T08:43:51;12.52;;;3.28;;
69744;SDS011;57015;50.120;-5.168;2023-04-24T08:46:16;17.13;;;3.03;;
69744;SDS011;57015;50.120;-5.168;2023-04-24T08:48:43;11.65;;;3.15;;
69744;SDS011;57015;50.120;-5.168;2023-04-24T08:51:09;21.97;;;3.90;;
69744;SDS011;57015;50.120;-5.168;2023-04-24T08:53:35;18.15;;;3.95;;
69744;SDS011;57015;50.120;-5.168;2023-04-24T08:56:01;14.80;;;3.75;;
69744;SDS011;57015;50.120;-5.168;2023-04-24T08:58:27;15.23;;;3.50;;
69744;SDS011;57015;50.120;-5.168;2023-04-24T09:00:56;13.95;;;3.58;;
69744;SDS011;57015;50.120;-5.168;2023-04-24T09:03:22;11.35;;;3.20;;
69744;SDS011;57015;50.120;-5.168;2023-04-24T09:05:49;9.33;;;2.93;;
69744;SDS011;57015;50.120;-5.168;2023-04-24T09:08:17;17.75;;;2.92;;
69744;SDS011;57015;50.120;-5.168;2023-04-24T09:10:43;16.13;;;3.85;;
69744;SDS011;57015;50.120;-5.168;2023-04-24T09:13:09;11.63;;;2.70;;
69744;SDS011;57015;50.120;-5.168;2023-04-24T09:15:41;12.73;;;3.20;;
69744;SDS011;57015;50.120;-5.168;2023-04-24T09:18:07;11.13;;;2.80;;
69744;SDS011;57015;50.120;-5.168;2023-04-24T09:20:32;8.82;;;2.92;;
69744;SDS011;57015;50.120;-5.168;2023-04-24T09:22:58;12.90;;;3.77;;
69744;SDS011;57015;50.120;-5.168;2023-04-24T09:25:31;10.65;;;3.03;;
69744;SDS011;57015;50.120;-5.168;2023-04-24T09:28:00;13.73;;;3.15;;
69744;SDS011;57015;50.120;-5.168;2023-04-24T09:30:27;11.10;;;3.47;;
69744;SDS011;57015;50.120;-5.168;2023-04-24T09:35:50;10.32;;;4.13;;
69744;SDS011;57015;50.120;-5.168;2023-04-24T09:38:16;11.40;;;3.73;;
69744;SDS011;57015;50.120;-5.168;2023-04-24T09:40:41;9.73;;;3.40;;
69744;SDS011;57015;50.120;-5.168;2023-04-24T09:43:10;10.43;;;3.33;;
69744;SDS011;57015;50.120;-5.168;2023-04-24T09:45:39;12.07;;;3.23;;
69744;SDS011;57015;50.120;-5.168;2023-04-24T09:48:05;9.70;;;2.90;;
69744;SDS011;57015;50.120;-5.168;2023-04-24T09:50:31;9.63;;;2.65;;
69744;SDS011;57015;50.120;-5.168;2023-04-24T09:52:58;10.40;;;3.30;;
69744;SDS011;57015;50.120;-5.168;2023-04-24T09:55:24;12.65;;;2.88;;
69744;SDS011;57015;50.120;-5.168;2023-04-24T09:57:51;5.17;;;2.90;;
69744;SDS011;57015;50.120;-5.168;2023-04-24T10:00:17;10.95;;;3.33;;
69744;SDS011;57015;50.120;-5.168;2023-04-24T10:07:59;10.43;;;2.30;;
69744;SDS011;57015;50.120;-5.168;2023-04-24T10:10:26;10.88;;;3.65;;
69744;SDS011;57015;50.120;-5.168;2023-04-24T10:12:51;10.77;;;2.30;;
69744;SDS011;57015;50.120;-5.168;2023-04-24T10:15:17;13.40;;;2.20;;
69744;SDS011;57015;50.120;-5.168;2023-04-24T10:17:47;10.45;;;2.40;;
69744;SDS011;57015;50.120;-5.168;2023-04-24T10:20:17;9.68;;;2.47;;
69744;SDS011;57015;50.120;-5.168;2023-04-24T10:22:44;10.15;;;2.28;;
69744;SDS011;57015;50.120;-5.168;2023-04-24T10:25:13;10.73;;;3.20;;
69744;SDS011;57015;50.120;-5.168;2023-04-24T10:27:38;6.07;;;1.90;;
69744;SDS011;57015;50.120;-5.168;2023-04-24T10:30:04;7.82;;;2.15;;
69744;SDS011;57015;50.120;-5.168;2023-04-24T10:32:30;9.20;;;2.07;;
69744;SDS011;57015;50.120;-5.168;2023-04-24T10:34:56;9.70;;;2.13;;
69744;SDS011;57015;50.120;-5.168;2023-04-24T10:37:22;7.60;;;1.70;;
69744;SDS011;57015;50.120;-5.168;2023-04-24T10:39:48;10.27;;;2.08;;
69744;SDS011;57015;50.120;-5.168;2023-04-24T10:42:16;11.17;;;1.53;;
69744;SDS011;57015;50.120;-5.168;2023-04-24T10:44:41;7.90;;;2.28;;
69744;SDS011;57015;50.120;-5.168;2023-04-24T10:47:12;10.30;;;2.23;;
69744;SDS011;57015;50.120;-5.168;2023-04-24T10:49:38;9.48;;;1.85;;
69744;SDS011;57015;50.120;-5.168;2023-04-24T10:52:03;7.03;;;2.00;;
69744;SDS011;57015;50.120;-5.168;2023-04-24T10:54:36;10.98;;;2.03;;
69744;SDS011;57015;50.120;-5.168;2023-04-24T10:59:51;9.73;;;2.40;;
69744;SDS011;57015;50.120;-5.168;2023-04-24T11:02:17;10.60;;;2.25;;
69744;SDS011;57015;50.120;-5.168;2023-04-24T11:04:43;9.77;;;2.40;;
69744;SDS011;57015;50.120;-5.168;2023-04-24T11:07:10;8.90;;;2.45;;
69744;SDS011;57015;50.120;-5.168;2023-04-24T11:09:36;15.02;;;2.50;;
69744;SDS011;57015;50.120;-5.168;2023-04-24T11:12:05;10.10;;;2.07;;
69744;SDS011;57015;50.120;-5.168;2023-04-24T11:17:29;9.65;;;2.08;;
69744;SDS011;57015;50.120;-5.168;2023-04-24T11:20:03;10.35;;;1.88;;
69744;SDS011;57015;50.120;-5.168;2023-04-24T11:22:32;9.02;;;2.00;;
69744;SDS011;57015;50.120;-5.168;2023-04-24T11:25:00;13.60;;;2.97;;
69744;SDS011;57015;50.120;-5.168;2023-04-24T11:27:32;6.38;;;1.90;;
69744;SDS011;57015;50.120;-5.168;2023-04-24T11:30:04;7.68;;;1.90;;
69744;SDS011;57015;50.120;-5.168;2023-04-24T11:35:00;11.00;;;2.47;;
69744;SDS011;57015;50.120;-5.168;2023-04-24T11:37:33;14.43;;;3.13;;
69744;SDS011;57015;50.120;-5.168;2023-04-24T11:40:00;4.88;;;1.60;;
69744;SDS011;57015;50.120;-5.168;2023-04-24T11:42:25;10.43;;;2.13;;
69744;SDS011;57015;50.120;-5.168;2023-04-24T11:44:54;9.75;;;2.22;;
69744;SDS011;57015;50.120;-5.168;2023-04-24T11:47:28;8.30;;;2.20;;
69744;SDS011;57015;50.120;-5.168;2023-04-24T11:49:55;8.23;;;2.15;;
69744;SDS011;57015;50.120;-5.168;2023-04-24T11:52:20;11.37;;;2.57;;
69744;SDS011;57015;50.120;-5.168;2023-04-24T11:54:49;10.45;;;1.70;;
69744;SDS011;57015;50.120;-5.168;2023-04-24T11:57:15;6.93;;;1.67;;
69744;SDS011;57015;50.120;-5.168;2023-04-24T11:59:41;11.02;;;2.38;;
69744;SDS011;57015;50.120;-5.168;2023-04-24T12:02:06;12.27;;;2.47;;
69744;SDS011;57015;50.120;-5.168;2023-04-24T12:04:39;9.02;;;2.35;;
69744;SDS011;57015;50.120;-5.168;2023-04-24T12:07:05;8.27;;;1.88;;
69744;SDS011;57015;50.120;-5.168;2023-04-24T12:12:07;11.15;;;2.40;;
69744;SDS011;57015;50.120;-5.168;2023-04-24T12:14:33;13.90;;;2.40;;
69744;SDS011;57015;50.120;-5.168;2023-04-24T12:17:07;8.90;;;2.13;;
69744;SDS011;57015;50.120;-5.168;2023-04-24T12:19:32;14.63;;;2.50;;
69744;SDS011;57015;50.120;-5.168;2023-04-24T12:21:59;10.10;;;2.57;;
69744;SDS011;57015;50.120;-5.168;2023-04-24T12:24:29;9.70;;;2.83;;
69744;SDS011;57015;50.120;-5.168;2023-04-24T12:26:55;10.75;;;2.70;;
69744;SDS011;57015;50.120;-5.168;2023-04-24T12:29:21;9.15;;;2.60;;
69744;SDS011;57015;50.120;-5.168;2023-04-24T12:31:46;13.17;;;2.97;;
69744;SDS011;57015;50.120;-5.168;2023-04-24T12:34:21;6.40;;;2.97;;
69744;SDS011;57015;50.120;-5.168;2023-04-24T12:36:47;10.30;;;2.90;;
69744;SDS011;57015;50.120;-5.168;2023-04-24T12:39:17;8.73;;;3.00;;
69744;SDS011;57015;50.120;-5.168;2023-04-24T12:41:50;9.63;;;2.88;;
69744;SDS011;57015;50.120;-5.168;2023-04-24T12:44:32;11.93;;;2.95;;
69744;SDS011;57015;50.120;-5.168;2023-04-24T12:46:59;11.38;;;3.83;;
69744;SDS011;57015;50.120;-5.168;2023-04-24T12:49:25;8.50;;;3.10;;
69744;SDS011;57015;50.120;-5.168;2023-04-24T12:51:51;7.50;;;3.17;;
69744;SDS011;57015;50.120;-5.168;2023-04-24T12:54:17;8.67;;;2.60;;
69744;SDS011;57015;50.120;-5.168;2023-04-24T12:56:42;8.98;;;3.38;;
69744;SDS011;57015;50.120;-5.168;2023-04-24T12:59:07;8.83;;;2.87;;
69744;SDS011;57015;50.120;-5.168;2023-04-24T13:01:33;7.97;;;2.53;;
69744;SDS011;57015;50.120;-5.168;2023-04-24T13:03:58;9.50;;;2.47;;
69744;SDS011;57015;50.120;-5.168;2023-04-24T13:06:24;5.97;;;3.03;;
69744;SDS011;57015;50.120;-5.168;2023-04-24T13:08:51;11.27;;;3.13;;
69744;SDS011;57015;50.120;-5.168;2023-04-24T13:11:17;10.50;;;3.17;;
69744;SDS011;57015;50.120;-5.168;2023-04-24T13:13:42;9.43;;;3.23;;
69744;SDS011;57015;50.120;-5.168;2023-04-24T13:16:08;7.97;;;2.92;;
69744;SDS011;57015;50.120;-5.168;2023-04-24T13:18:33;8.53;;;2.97;;
69744;SDS011;57015;50.120;-5.168;2023-04-24T13:20:59;9.53;;;2.90;;
69744;SDS011;57015;50.120;-5.168;2023-04-24T13:23:24;7.27;;;2.97;;
69744;SDS011;57015;50.120;-5.168;2023-04-24T13:25:49;5.93;;;2.67;;
69744;SDS011;57015;50.120;-5.168;2023-04-24T13:28:15;8.30;;;2.60;;
69744;SDS011;57015;50.120;-5.168;2023-04-24T13:30:40;7.97;;;2.20;;
69744;SDS011;57015;50.120;-5.168;2023-04-24T13:33:06;7.63;;;2.70;;
69744;SDS011;57015;50.120;-5.168;2023-04-24T13:35:31;5.57;;;2.40;;
69744;SDS011;57015;50.120;-5.168;2023-04-24T13:37:57;8.43;;;2.40;;
69744;SDS011;57015;50.120;-5.168;2023-04-24T13:40:22;6.60;;;2.40;;
69744;SDS011;57015;50.120;-5.168;2023-04-24T13:42:48;5.90;;;1.70;;
69744;SDS011;57015;50.120;-5.168;2023-04-24T13:45:13;5.00;;;1.50;;
69744;SDS011;57015;50.120;-5.168;2023-04-24T13:47:39;5.77;;;1.80;;
69744;SDS011;57015;50.120;-5.168;2023-04-24T13:50:06;4.55;;;1.58;;
69744;SDS011;57015;50.120;-5.168;2023-04-24T13:52:33;6.40;;;1.60;;
69744;SDS011;57015;50.120;-5.168;2023-04-24T13:54:58;7.53;;;1.70;;
69744;SDS011;57015;50.120;-5.168;2023-04-24T13:57:24;5.30;;;1.77;;
69744;SDS011;57015;50.120;-5.168;2023-04-24T13:59:49;6.27;;;1.80;;
69744;SDS011;57015;50.120;-5.168;2023-04-24T14:02:15;5.93;;;1.50;;
69744;SDS011;57015;50.120;-5.168;2023-04-24T14:04:40;5.53;;;1.52;;
69744;SDS011;57015;50.120;-5.168;2023-04-24T14:07:05;6.77;;;1.60;;
69744;SDS011;57015;50.120;-5.168;2023-04-24T14:09:31;3.40;;;1.47;;
69744;SDS011;57015;50.120;-5.168;2023-04-24T14:11:56;6.87;;;1.40;;
69744;SDS011;57015;50.120;-5.168;2023-04-24T14:14:22;5.87;;;1.57;;
69744;SDS011;57015;50.120;-5.168;2023-04-24T14:16:47;5.43;;;1.90;;
69744;SDS011;57015;50.120;-5.168;2023-04-24T14:19:13;5.70;;;1.50;;
69744;SDS011;57015;50.120;-5.168;2023-04-24T14:21:38;9.70;;;1.93;;
69744;SDS011;57015;50.120;-5.168;2023-04-24T14:24:04;6.57;;;1.40;;
69744;SDS011;57015;50.120;-5.168;2023-04-24T14:26:29;5.55;;;1.52;;
69744;SDS011;57015;50.120;-5.168;2023-04-24T14:28:55;6.17;;;1.97;;
69744;SDS011;57015;50.120;-5.168;2023-04-24T14:31:20;5.50;;;1.73;;
69744;SDS011;57015;50.120;-5.168;2023-04-24T14:33:45;5.30;;;1.30;;
69744;SDS011;57015;50.120;-5.168;2023-04-24T14:36:11;6.17;;;1.30;;
69744;SDS011;57015;50.120;-5.168;2023-04-24T14:38:36;2.95;;;1.10;;
69744;SDS011;57015;50.120;-5.168;2023-04-24T14:41:02;5.37;;;1.17;;
69744;SDS011;57015;50.120;-5.168;2023-04-24T14:43:33;3.80;;;1.40;;